sensor_id;sensor_type;location;lat;lon;timestamp;P1;durP1;ratioP1;P2;durP2;ratioP2
7213;SDS011;3648;50.614;13.830;2023-04-03T00:01:41;5.10;;;1.90;;
7213;SDS011;3648;50.614;13.830;2023-04-03T00:04:08;5.20;;;1.97;;
7213;SDS011;3648;50.614;13.830;2023-04-03T00:06:35;2.27;;;1.80;;
7213;SDS011;3648;50.614;13.830;2023-04-03T00:09:02;2.00;;;1.70;;
7213;SDS011;3648;50.614;13.830;2023-04-03T00:11:30;3.63;;;1.77;;
7213;SDS011;3648;50.614;13.830;2023-04-03T00:13:57;2.97;;;1.90;;
7213;SDS011;3648;50.614;13.830;2023-04-03T00:16:24;3.83;;;1.73;;
7213;SDS011;3648;50.614;13.830;2023-04-03T00:18:51;3.33;;;1.90;;
7213;SDS011;3648;50.614;13.830;2023-04-03T00:21:18;4.30;;;1.77;;
7213;SDS011;3648;50.614;13.830;2023-04-03T00:23:45;3.03;;;1.80;;
7213;SDS011;3648;50.614;13.830;2023-04-03T00:26:12;3.17;;;1.80;;
7213;SDS011;3648;50.614;13.830;2023-04-03T00:28:40;3.23;;;1.70;;
7213;SDS011;3648;50.614;13.830;2023-04-03T00:31:07;2.20;;;1.50;;
7213;SDS011;3648;50.614;13.830;2023-04-03T00:33:34;2.07;;;1.53;;
7213;SDS011;3648;50.614;13.830;2023-04-03T00:36:05;3.60;;;1.63;;
7213;SDS011;3648;50.614;13.830;2023-04-03T00:38:32;3.40;;;1.90;;
7213;SDS011;3648;50.614;13.830;2023-04-03T00:40:59;3.37;;;1.70;;
7213;SDS011;3648;50.614;13.830;2023-04-03T00:43:26;3.63;;;1.80;;
7213;SDS011;3648;50.614;13.830;2023-04-03T00:45:55;3.97;;;1.47;;
7213;SDS011;3648;50.614;13.830;2023-04-03T00:48:24;2.73;;;1.57;;
7213;SDS011;3648;50.614;13.830;2023-04-03T00:50:55;2.73;;;1.60;;
7213;SDS011;3648;50.614;13.830;2023-04-03T00:53:23;4.30;;;2.00;;
7213;SDS011;3648;50.614;13.830;2023-04-03T00:55:53;3.20;;;1.40;;
7213;SDS011;3648;50.614;13.830;2023-04-03T00:58:22;4.50;;;1.63;;
7213;SDS011;3648;50.614;13.830;2023-04-03T01:00:56;2.77;;;1.50;;
7213;SDS011;3648;50.614;13.830;2023-04-03T01:03:25;3.60;;;1.40;;
7213;SDS011;3648;50.614;13.830;2023-04-03T01:05:51;3.23;;;1.80;;
7213;SDS011;3648;50.614;13.830;2023-04-03T01:08:19;3.63;;;1.73;;
7213;SDS011;3648;50.614;13.830;2023-04-03T01:10:46;2.20;;;1.60;;
7213;SDS011;3648;50.614;13.830;2023-04-03T01:13:21;3.70;;;1.50;;
7213;SDS011;3648;50.614;13.830;2023-04-03T01:15:51;2.73;;;1.10;;
7213;SDS011;3648;50.614;13.830;2023-04-03T01:18:20;2.77;;;1.60;;
7213;SDS011;3648;50.614;13.830;2023-04-03T01:23:52;3.13;;;1.70;;
7213;SDS011;3648;50.614;13.830;2023-04-03T01:26:24;4.30;;;1.47;;
7213;SDS011;3648;50.614;13.830;2023-04-03T01:28:53;4.03;;;1.53;;
7213;SDS011;3648;50.614;13.830;2023-04-03T01:31:22;2.23;;;1.50;;
7213;SDS011;3648;50.614;13.830;2023-04-03T01:33:54;2.33;;;1.50;;
7213;SDS011;3648;50.614;13.830;2023-04-03T01:36:22;2.27;;;1.60;;
7213;SDS011;3648;50.614;13.830;2023-04-03T01:38:50;2.53;;;1.53;;
7213;SDS011;3648;50.614;13.830;2023-04-03T01:41:17;2.23;;;1.57;;
7213;SDS011;3648;50.614;13.830;2023-04-03T01:43:45;1.97;;;1.50;;
7213;SDS011;3648;50.614;13.830;2023-04-03T01:46:13;4.10;;;1.87;;
7213;SDS011;3648;50.614;13.830;2023-04-03T01:48:40;2.13;;;1.40;;
7213;SDS011;3648;50.614;13.830;2023-04-03T01:51:08;3.30;;;1.47;;
7213;SDS011;3648;50.614;13.830;2023-04-03T01:53:35;2.50;;;1.33;;
7213;SDS011;3648;50.614;13.830;2023-04-03T01:56:03;1.87;;;1.27;;
7213;SDS011;3648;50.614;13.830;2023-04-03T01:58:30;2.47;;;1.50;;
7213;SDS011;3648;50.614;13.830;2023-04-03T02:00:57;3.27;;;1.63;;
7213;SDS011;3648;50.614;13.830;2023-04-03T02:03:24;4.80;;;1.43;;
7213;SDS011;3648;50.614;13.830;2023-04-03T02:05:51;4.03;;;1.53;;
7213;SDS011;3648;50.614;13.830;2023-04-03T02:08:20;3.17;;;1.40;;
7213;SDS011;3648;50.614;13.830;2023-04-03T02:10:47;1.87;;;1.23;;
7213;SDS011;3648;50.614;13.830;2023-04-03T02:13:14;2.57;;;1.57;;
7213;SDS011;3648;50.614;13.830;2023-04-03T02:15:41;2.53;;;1.47;;
7213;SDS011;3648;50.614;13.830;2023-04-03T02:18:09;2.30;;;1.30;;
7213;SDS011;3648;50.614;13.830;2023-04-03T02:20:36;1.63;;;1.30;;
7213;SDS011;3648;50.614;13.830;2023-04-03T02:23:03;2.47;;;1.60;;
7213;SDS011;3648;50.614;13.830;2023-04-03T02:25:32;3.67;;;1.83;;
7213;SDS011;3648;50.614;13.830;2023-04-03T02:27:59;2.70;;;1.40;;
7213;SDS011;3648;50.614;13.830;2023-04-03T02:30:26;3.63;;;1.50;;
7213;SDS011;3648;50.614;13.830;2023-04-03T02:32:53;2.27;;;1.23;;
7213;SDS011;3648;50.614;13.830;2023-04-03T02:35:21;2.37;;;1.20;;
7213;SDS011;3648;50.614;13.830;2023-04-03T02:37:48;3.93;;;1.83;;
7213;SDS011;3648;50.614;13.830;2023-04-03T02:40:15;2.83;;;1.57;;
7213;SDS011;3648;50.614;13.830;2023-04-03T02:42:43;2.03;;;1.50;;
7213;SDS011;3648;50.614;13.830;2023-04-03T02:45:10;3.03;;;1.50;;
7213;SDS011;3648;50.614;13.830;2023-04-03T02:47:37;3.47;;;1.40;;
7213;SDS011;3648;50.614;13.830;2023-04-03T02:50:04;1.83;;;1.10;;
7213;SDS011;3648;50.614;13.830;2023-04-03T02:52:31;2.57;;;1.43;;
7213;SDS011;3648;50.614;13.830;2023-04-03T02:54:58;1.97;;;1.10;;
7213;SDS011;3648;50.614;13.830;2023-04-03T02:57:25;2.87;;;1.57;;
7213;SDS011;3648;50.614;13.830;2023-04-03T02:59:53;3.30;;;1.50;;
7213;SDS011;3648;50.614;13.830;2023-04-03T03:02:20;2.40;;;1.20;;
7213;SDS011;3648;50.614;13.830;2023-04-03T03:04:47;2.13;;;1.30;;
7213;SDS011;3648;50.614;13.830;2023-04-03T03:07:14;3.23;;;1.40;;
7213;SDS011;3648;50.614;13.830;2023-04-03T03:09:41;3.03;;;1.30;;
7213;SDS011;3648;50.614;13.830;2023-04-03T03:12:07;2.40;;;1.30;;
7213;SDS011;3648;50.614;13.830;2023-04-03T03:14:34;2.93;;;1.70;;
7213;SDS011;3648;50.614;13.830;2023-04-03T03:17:03;3.50;;;1.70;;
7213;SDS011;3648;50.614;13.830;2023-04-03T03:19:30;4.47;;;1.80;;
7213;SDS011;3648;50.614;13.830;2023-04-03T03:21:57;3.20;;;1.30;;
7213;SDS011;3648;50.614;13.830;2023-04-03T03:24:24;2.60;;;1.40;;
7213;SDS011;3648;50.614;13.830;2023-04-03T03:26:51;2.40;;;1.30;;
7213;SDS011;3648;50.614;13.830;2023-04-03T03:29:18;2.00;;;1.47;;
7213;SDS011;3648;50.614;13.830;2023-04-03T03:31:45;2.50;;;1.60;;
7213;SDS011;3648;50.614;13.830;2023-04-03T03:34:13;3.80;;;1.60;;
7213;SDS011;3648;50.614;13.830;2023-04-03T03:36:40;2.47;;;1.40;;
7213;SDS011;3648;50.614;13.830;2023-04-03T03:39:07;3.50;;;1.77;;
7213;SDS011;3648;50.614;13.830;2023-04-03T03:41:34;3.10;;;1.43;;
7213;SDS011;3648;50.614;13.830;2023-04-03T03:44:01;2.40;;;1.50;;
7213;SDS011;3648;50.614;13.830;2023-04-03T03:46:28;2.07;;;1.67;;
7213;SDS011;3648;50.614;13.830;2023-04-03T03:48:55;3.33;;;1.90;;
7213;SDS011;3648;50.614;13.830;2023-04-03T03:51:23;4.90;;;1.73;;
7213;SDS011;3648;50.614;13.830;2023-04-03T03:53:50;3.07;;;1.80;;
7213;SDS011;3648;50.614;13.830;2023-04-03T03:56:17;2.43;;;1.77;;
7213;SDS011;3648;50.614;13.830;2023-04-03T03:58:45;3.50;;;1.60;;
7213;SDS011;3648;50.614;13.830;2023-04-03T04:01:12;4.63;;;1.60;;
7213;SDS011;3648;50.614;13.830;2023-04-03T04:03:40;3.37;;;2.33;;
7213;SDS011;3648;50.614;13.830;2023-04-03T04:06:07;3.80;;;2.20;;
7213;SDS011;3648;50.614;13.830;2023-04-03T04:08:35;9.00;;;6.17;;
7213;SDS011;3648;50.614;13.830;2023-04-03T04:11:02;9.13;;;6.40;;
7213;SDS011;3648;50.614;13.830;2023-04-03T04:13:29;4.90;;;3.50;;
7213;SDS011;3648;50.614;13.830;2023-04-03T04:15:57;4.20;;;2.47;;
7213;SDS011;3648;50.614;13.830;2023-04-03T04:18:24;4.10;;;3.17;;
7213;SDS011;3648;50.614;13.830;2023-04-03T04:20:51;4.43;;;2.50;;
7213;SDS011;3648;50.614;13.830;2023-04-03T04:23:18;3.90;;;2.87;;
7213;SDS011;3648;50.614;13.830;2023-04-03T04:25:46;4.00;;;2.57;;
7213;SDS011;3648;50.614;13.830;2023-04-03T04:28:14;3.53;;;2.33;;
7213;SDS011;3648;50.614;13.830;2023-04-03T04:30:42;3.47;;;2.27;;
7213;SDS011;3648;50.614;13.830;2023-04-03T04:33:09;2.90;;;1.97;;
7213;SDS011;3648;50.614;13.830;2023-04-03T04:35:36;3.73;;;2.03;;
7213;SDS011;3648;50.614;13.830;2023-04-03T04:38:04;4.33;;;1.80;;
7213;SDS011;3648;50.614;13.830;2023-04-03T04:40:33;2.17;;;1.83;;
7213;SDS011;3648;50.614;13.830;2023-04-03T04:43:02;3.07;;;1.70;;
7213;SDS011;3648;50.614;13.830;2023-04-03T04:45:29;4.00;;;2.17;;
7213;SDS011;3648;50.614;13.830;2023-04-03T04:47:57;2.30;;;1.60;;
7213;SDS011;3648;50.614;13.830;2023-04-03T04:50:24;3.60;;;2.00;;
7213;SDS011;3648;50.614;13.830;2023-04-03T04:52:52;4.60;;;2.00;;
7213;SDS011;3648;50.614;13.830;2023-04-03T04:55:19;2.60;;;1.80;;
7213;SDS011;3648;50.614;13.830;2023-04-03T04:57:47;4.57;;;2.10;;
7213;SDS011;3648;50.614;13.830;2023-04-03T05:00:16;2.73;;;1.83;;
7213;SDS011;3648;50.614;13.830;2023-04-03T05:02:44;3.13;;;1.97;;
7213;SDS011;3648;50.614;13.830;2023-04-03T05:05:11;3.87;;;1.97;;
7213;SDS011;3648;50.614;13.830;2023-04-03T05:07:38;4.30;;;2.10;;
7213;SDS011;3648;50.614;13.830;2023-04-03T05:10:06;5.33;;;2.20;;
7213;SDS011;3648;50.614;13.830;2023-04-03T05:12:35;2.50;;;1.40;;
7213;SDS011;3648;50.614;13.830;2023-04-03T05:15:02;3.90;;;1.93;;
7213;SDS011;3648;50.614;13.830;2023-04-03T05:17:31;5.63;;;2.23;;
7213;SDS011;3648;50.614;13.830;2023-04-03T05:19:58;4.23;;;2.30;;
7213;SDS011;3648;50.614;13.830;2023-04-03T05:22:25;4.10;;;1.87;;
7213;SDS011;3648;50.614;13.830;2023-04-03T05:24:52;3.17;;;1.50;;
7213;SDS011;3648;50.614;13.830;2023-04-03T05:27:19;4.67;;;2.10;;
7213;SDS011;3648;50.614;13.830;2023-04-03T05:29:48;3.90;;;1.90;;
7213;SDS011;3648;50.614;13.830;2023-04-03T05:32:15;3.57;;;1.60;;
7213;SDS011;3648;50.614;13.830;2023-04-03T05:34:44;4.53;;;1.70;;
7213;SDS011;3648;50.614;13.830;2023-04-03T05:37:11;4.00;;;1.63;;
7213;SDS011;3648;50.614;13.830;2023-04-03T05:39:38;2.70;;;1.60;;
7213;SDS011;3648;50.614;13.830;2023-04-03T05:42:05;3.07;;;1.67;;
7213;SDS011;3648;50.614;13.830;2023-04-03T05:44:32;2.83;;;1.80;;
7213;SDS011;3648;50.614;13.830;2023-04-03T05:47:00;3.43;;;1.90;;
7213;SDS011;3648;50.614;13.830;2023-04-03T05:49:27;3.90;;;1.73;;
7213;SDS011;3648;50.614;13.830;2023-04-03T05:51:55;2.83;;;1.53;;
7213;SDS011;3648;50.614;13.830;2023-04-03T05:54:23;3.63;;;1.50;;
7213;SDS011;3648;50.614;13.830;2023-04-03T05:56:51;4.77;;;1.97;;
7213;SDS011;3648;50.614;13.830;2023-04-03T05:59:19;3.20;;;1.77;;
7213;SDS011;3648;50.614;13.830;2023-04-03T06:01:46;2.73;;;1.70;;
7213;SDS011;3648;50.614;13.830;2023-04-03T06:04:14;2.13;;;1.60;;
7213;SDS011;3648;50.614;13.830;2023-04-03T06:06:48;5.67;;;1.80;;
7213;SDS011;3648;50.614;13.830;2023-04-03T06:09:18;2.57;;;1.70;;
7213;SDS011;3648;50.614;13.830;2023-04-03T06:11:46;3.47;;;1.63;;
7213;SDS011;3648;50.614;13.830;2023-04-03T06:14:13;3.40;;;1.47;;
7213;SDS011;3648;50.614;13.830;2023-04-03T06:16:40;4.20;;;1.90;;
7213;SDS011;3648;50.614;13.830;2023-04-03T06:19:07;3.73;;;2.00;;
7213;SDS011;3648;50.614;13.830;2023-04-03T06:21:35;2.77;;;1.57;;
7213;SDS011;3648;50.614;13.830;2023-04-03T06:24:02;3.30;;;1.80;;
7213;SDS011;3648;50.614;13.830;2023-04-03T06:26:30;3.00;;;1.50;;
7213;SDS011;3648;50.614;13.830;2023-04-03T06:28:58;3.33;;;1.60;;
7213;SDS011;3648;50.614;13.830;2023-04-03T06:31:27;2.87;;;1.70;;
7213;SDS011;3648;50.614;13.830;2023-04-03T06:33:54;4.93;;;1.90;;
7213;SDS011;3648;50.614;13.830;2023-04-03T06:36:21;2.80;;;1.53;;
7213;SDS011;3648;50.614;13.830;2023-04-03T06:38:48;2.07;;;1.57;;
7213;SDS011;3648;50.614;13.830;2023-04-03T06:41:15;2.87;;;1.90;;
7213;SDS011;3648;50.614;13.830;2023-04-03T06:43:44;3.67;;;1.60;;
7213;SDS011;3648;50.614;13.830;2023-04-03T06:46:14;2.97;;;1.73;;
7213;SDS011;3648;50.614;13.830;2023-04-03T06:48:42;1.90;;;1.50;;
7213;SDS011;3648;50.614;13.830;2023-04-03T06:51:13;3.57;;;1.77;;
7213;SDS011;3648;50.614;13.830;2023-04-03T06:53:44;2.73;;;1.73;;
7213;SDS011;3648;50.614;13.830;2023-04-03T06:56:12;2.47;;;1.70;;
7213;SDS011;3648;50.614;13.830;2023-04-03T06:58:39;3.73;;;1.50;;
7213;SDS011;3648;50.614;13.830;2023-04-03T07:01:08;2.97;;;1.90;;
7213;SDS011;3648;50.614;13.830;2023-04-03T07:03:36;2.90;;;1.30;;
7213;SDS011;3648;50.614;13.830;2023-04-03T07:06:03;2.40;;;1.20;;
7213;SDS011;3648;50.614;13.830;2023-04-03T07:08:30;3.80;;;1.57;;
7213;SDS011;3648;50.614;13.830;2023-04-03T07:10:58;2.30;;;1.70;;
7213;SDS011;3648;50.614;13.830;2023-04-03T07:13:25;2.70;;;1.60;;
7213;SDS011;3648;50.614;13.830;2023-04-03T07:15:52;1.93;;;1.30;;
7213;SDS011;3648;50.614;13.830;2023-04-03T07:18:21;3.37;;;1.60;;
7213;SDS011;3648;50.614;13.830;2023-04-03T07:20:48;2.43;;;2.03;;
7213;SDS011;3648;50.614;13.830;2023-04-03T07:23:15;2.10;;;1.47;;
7213;SDS011;3648;50.614;13.830;2023-04-03T07:25:42;3.57;;;1.83;;
7213;SDS011;3648;50.614;13.830;2023-04-03T07:28:10;3.00;;;1.60;;
7213;SDS011;3648;50.614;13.830;2023-04-03T07:30:42;5.00;;;1.80;;
7213;SDS011;3648;50.614;13.830;2023-04-03T07:33:10;4.10;;;1.80;;
7213;SDS011;3648;50.614;13.830;2023-04-03T07:35:38;4.83;;;2.00;;
7213;SDS011;3648;50.614;13.830;2023-04-03T07:38:05;2.83;;;1.60;;
7213;SDS011;3648;50.614;13.830;2023-04-03T07:40:32;2.43;;;1.50;;
7213;SDS011;3648;50.614;13.830;2023-04-03T07:43:00;2.30;;;1.50;;
7213;SDS011;3648;50.614;13.830;2023-04-03T07:45:27;2.23;;;1.53;;
7213;SDS011;3648;50.614;13.830;2023-04-03T07:47:55;2.90;;;1.80;;
7213;SDS011;3648;50.614;13.830;2023-04-03T07:50:22;2.33;;;1.40;;
7213;SDS011;3648;50.614;13.830;2023-04-03T07:52:51;3.73;;;1.70;;
7213;SDS011;3648;50.614;13.830;2023-04-03T07:55:19;2.67;;;1.40;;
7213;SDS011;3648;50.614;13.830;2023-04-03T07:57:46;3.47;;;1.60;;
7213;SDS011;3648;50.614;13.830;2023-04-03T08:00:13;2.77;;;1.97;;
7213;SDS011;3648;50.614;13.830;2023-04-03T08:02:42;3.43;;;1.50;;
7213;SDS011;3648;50.614;13.830;2023-04-03T08:05:15;1.90;;;1.47;;
7213;SDS011;3648;50.614;13.830;2023-04-03T08:07:42;3.17;;;1.50;;
7213;SDS011;3648;50.614;13.830;2023-04-03T08:10:10;3.87;;;2.13;;
7213;SDS011;3648;50.614;13.830;2023-04-03T08:12:37;4.07;;;1.87;;
7213;SDS011;3648;50.614;13.830;2023-04-03T08:15:04;3.27;;;1.70;;
7213;SDS011;3648;50.614;13.830;2023-04-03T08:17:32;3.53;;;1.20;;
7213;SDS011;3648;50.614;13.830;2023-04-03T08:19:59;2.40;;;1.47;;
7213;SDS011;3648;50.614;13.830;2023-04-03T08:22:26;4.17;;;1.63;;
7213;SDS011;3648;50.614;13.830;2023-04-03T08:24:53;1.83;;;1.40;;
7213;SDS011;3648;50.614;13.830;2023-04-03T08:27:22;1.83;;;1.40;;
7213;SDS011;3648;50.614;13.830;2023-04-03T08:29:48;3.13;;;1.70;;
7213;SDS011;3648;50.614;13.830;2023-04-03T08:32:16;4.40;;;2.00;;
7213;SDS011;3648;50.614;13.830;2023-04-03T08:34:44;5.47;;;1.60;;
7213;SDS011;3648;50.614;13.830;2023-04-03T08:37:11;3.10;;;2.10;;
7213;SDS011;3648;50.614;13.830;2023-04-03T08:39:38;3.30;;;1.97;;
7213;SDS011;3648;50.614;13.830;2023-04-03T08:42:05;3.17;;;1.83;;
7213;SDS011;3648;50.614;13.830;2023-04-03T08:44:45;4.33;;;2.00;;
7213;SDS011;3648;50.614;13.830;2023-04-03T08:47:18;3.57;;;1.90;;
7213;SDS011;3648;50.614;13.830;2023-04-03T08:49:51;3.03;;;2.00;;
7213;SDS011;3648;50.614;13.830;2023-04-03T08:52:22;3.47;;;1.90;;
7213;SDS011;3648;50.614;13.830;2023-04-03T08:54:59;5.40;;;2.33;;
7213;SDS011;3648;50.614;13.830;2023-04-03T08:57:28;2.97;;;1.83;;
7213;SDS011;3648;50.614;13.830;2023-04-03T08:59:59;3.30;;;1.83;;
7213;SDS011;3648;50.614;13.830;2023-04-03T09:02:31;3.20;;;2.17;;
7213;SDS011;3648;50.614;13.830;2023-04-03T09:05:01;2.93;;;1.93;;
7213;SDS011;3648;50.614;13.830;2023-04-03T09:07:33;3.87;;;2.67;;
7213;SDS011;3648;50.614;13.830;2023-04-03T09:10:05;15.57;;;8.77;;
7213;SDS011;3648;50.614;13.830;2023-04-03T09:12:36;9.63;;;6.37;;
7213;SDS011;3648;50.614;13.830;2023-04-03T09:15:10;18.87;;;10.90;;
7213;SDS011;3648;50.614;13.830;2023-04-03T09:17:47;15.67;;;9.73;;
7213;SDS011;3648;50.614;13.830;2023-04-03T09:20:24;10.73;;;6.60;;
7213;SDS011;3648;50.614;13.830;2023-04-03T09:22:57;5.70;;;3.80;;
7213;SDS011;3648;50.614;13.830;2023-04-03T09:25:25;10.33;;;7.67;;
7213;SDS011;3648;50.614;13.830;2023-04-03T09:27:53;8.77;;;5.80;;
7213;SDS011;3648;50.614;13.830;2023-04-03T09:30:23;5.07;;;3.50;;
7213;SDS011;3648;50.614;13.830;2023-04-03T09:32:52;4.73;;;3.50;;
7213;SDS011;3648;50.614;13.830;2023-04-03T09:35:21;11.97;;;7.67;;
7213;SDS011;3648;50.614;13.830;2023-04-03T09:37:51;3.70;;;3.27;;
7213;SDS011;3648;50.614;13.830;2023-04-03T09:43:21;3.63;;;2.67;;
7213;SDS011;3648;50.614;13.830;2023-04-03T09:45:52;4.07;;;3.00;;
7213;SDS011;3648;50.614;13.830;2023-04-03T09:48:21;3.33;;;2.93;;
7213;SDS011;3648;50.614;13.830;2023-04-03T09:50:54;3.53;;;2.70;;
7213;SDS011;3648;50.614;13.830;2023-04-03T09:53:26;3.63;;;2.77;;
7213;SDS011;3648;50.614;13.830;2023-04-03T09:55:58;3.07;;;2.63;;
7213;SDS011;3648;50.614;13.830;2023-04-03T09:58:27;3.23;;;2.37;;
7213;SDS011;3648;50.614;13.830;2023-04-03T10:00:57;3.37;;;2.03;;
7213;SDS011;3648;50.614;13.830;2023-04-03T10:03:27;2.97;;;1.97;;
7213;SDS011;3648;50.614;13.830;2023-04-03T10:05:57;2.77;;;1.77;;
7213;SDS011;3648;50.614;13.830;2023-04-03T10:08:26;4.07;;;1.70;;
7213;SDS011;3648;50.614;13.830;2023-04-03T10:11:10;2.20;;;1.50;;
7213;SDS011;3648;50.614;13.830;2023-04-03T10:13:51;1.63;;;1.40;;
7213;SDS011;3648;50.614;13.830;2023-04-03T10:16:22;2.70;;;1.80;;
7213;SDS011;3648;50.614;13.830;2023-04-03T10:21:46;1.83;;;1.20;;
7213;SDS011;3648;50.614;13.830;2023-04-03T10:24:18;2.53;;;1.40;;
7213;SDS011;3648;50.614;13.830;2023-04-03T10:26:52;2.23;;;1.53;;
7213;SDS011;3648;50.614;13.830;2023-04-03T10:29:40;1.90;;;1.37;;
7213;SDS011;3648;50.614;13.830;2023-04-03T10:35:08;1.67;;;1.27;;
7213;SDS011;3648;50.614;13.830;2023-04-03T10:37:45;2.80;;;1.50;;
7213;SDS011;3648;50.614;13.830;2023-04-03T10:40:23;3.27;;;1.60;;
7213;SDS011;3648;50.614;13.830;2023-04-03T10:42:59;1.77;;;1.27;;
7213;SDS011;3648;50.614;13.830;2023-04-03T10:45:35;1.93;;;1.00;;
7213;SDS011;3648;50.614;13.830;2023-04-03T10:48:16;2.17;;;1.37;;
7213;SDS011;3648;50.614;13.830;2023-04-03T10:50:51;1.40;;;1.20;;
7213;SDS011;3648;50.614;13.830;2023-04-03T10:53:27;2.27;;;1.30;;
7213;SDS011;3648;50.614;13.830;2023-04-03T10:56:01;2.70;;;1.07;;
7213;SDS011;3648;50.614;13.830;2023-04-03T10:58:34;2.63;;;1.30;;
7213;SDS011;3648;50.614;13.830;2023-04-03T11:01:06;2.03;;;1.40;;
7213;SDS011;3648;50.614;13.830;2023-04-03T11:03:38;1.97;;;1.20;;
7213;SDS011;3648;50.614;13.830;2023-04-03T11:06:12;4.17;;;1.27;;
7213;SDS011;3648;50.614;13.830;2023-04-03T11:08:43;3.47;;;1.60;;
7213;SDS011;3648;50.614;13.830;2023-04-03T11:11:14;2.90;;;1.30;;
7213;SDS011;3648;50.614;13.830;2023-04-03T11:13:45;1.57;;;1.10;;
7213;SDS011;3648;50.614;13.830;2023-04-03T11:16:19;1.60;;;1.20;;
7213;SDS011;3648;50.614;13.830;2023-04-03T11:18:51;2.83;;;1.77;;
7213;SDS011;3648;50.614;13.830;2023-04-03T11:21:23;1.77;;;1.30;;
7213;SDS011;3648;50.614;13.830;2023-04-03T11:23:56;3.13;;;1.47;;
7213;SDS011;3648;50.614;13.830;2023-04-03T11:26:25;3.13;;;1.67;;
7213;SDS011;3648;50.614;13.830;2023-04-03T11:28:58;2.80;;;1.10;;
7213;SDS011;3648;50.614;13.830;2023-04-03T11:31:40;1.80;;;0.93;;
7213;SDS011;3648;50.614;13.830;2023-04-03T11:34:23;1.87;;;1.20;;
7213;SDS011;3648;50.614;13.830;2023-04-03T11:36:59;2.07;;;1.23;;
7213;SDS011;3648;50.614;13.830;2023-04-03T11:39:31;2.77;;;1.23;;
7213;SDS011;3648;50.614;13.830;2023-04-03T11:42:12;4.83;;;1.43;;
7213;SDS011;3648;50.614;13.830;2023-04-03T11:44:41;1.63;;;1.20;;
7213;SDS011;3648;50.614;13.830;2023-04-03T11:47:09;1.53;;;1.17;;
7213;SDS011;3648;50.614;13.830;2023-04-03T11:49:51;4.17;;;1.17;;
7213;SDS011;3648;50.614;13.830;2023-04-03T11:58:22;3.03;;;1.57;;
7213;SDS011;3648;50.614;13.830;2023-04-03T12:00:51;2.20;;;1.37;;
7213;SDS011;3648;50.614;13.830;2023-04-03T12:12:41;3.80;;;1.63;;
7213;SDS011;3648;50.614;13.830;2023-04-03T12:18:31;2.00;;;1.40;;
7213;SDS011;3648;50.614;13.830;2023-04-03T12:21:08;3.37;;;1.40;;
7213;SDS011;3648;50.614;13.830;2023-04-03T12:23:54;2.27;;;1.40;;
7213;SDS011;3648;50.614;13.830;2023-04-03T12:26:25;1.43;;;1.30;;
7213;SDS011;3648;50.614;13.830;2023-04-03T12:28:54;3.27;;;1.23;;
7213;SDS011;3648;50.614;13.830;2023-04-03T12:31:22;4.53;;;1.60;;
7213;SDS011;3648;50.614;13.830;2023-04-03T12:34:04;2.47;;;1.20;;
7213;SDS011;3648;50.614;13.830;2023-04-03T12:36:44;2.00;;;1.10;;
7213;SDS011;3648;50.614;13.830;2023-04-03T12:45:10;2.60;;;1.37;;
7213;SDS011;3648;50.614;13.830;2023-04-03T12:47:44;2.00;;;1.00;;
7213;SDS011;3648;50.614;13.830;2023-04-03T12:50:19;1.90;;;1.33;;
7213;SDS011;3648;50.614;13.830;2023-04-03T12:52:51;4.00;;;1.70;;
7213;SDS011;3648;50.614;13.830;2023-04-03T12:55:24;4.90;;;1.60;;
7213;SDS011;3648;50.614;13.830;2023-04-03T12:57:51;2.53;;;1.50;;
7213;SDS011;3648;50.614;13.830;2023-04-03T13:00:20;2.50;;;1.40;;
7213;SDS011;3648;50.614;13.830;2023-04-03T13:02:52;2.80;;;1.50;;
7213;SDS011;3648;50.614;13.830;2023-04-03T13:05:20;2.80;;;1.20;;
7213;SDS011;3648;50.614;13.830;2023-04-03T13:07:49;3.40;;;1.43;;
7213;SDS011;3648;50.614;13.830;2023-04-03T13:10:23;2.67;;;1.53;;
7213;SDS011;3648;50.614;13.830;2023-04-03T13:12:51;1.90;;;1.67;;
7213;SDS011;3648;50.614;13.830;2023-04-03T13:15:20;2.70;;;2.00;;
7213;SDS011;3648;50.614;13.830;2023-04-03T13:17:51;3.60;;;1.90;;
7213;SDS011;3648;50.614;13.830;2023-04-03T13:20:20;2.50;;;1.50;;
7213;SDS011;3648;50.614;13.830;2023-04-03T13:22:58;2.57;;;1.40;;
7213;SDS011;3648;50.614;13.830;2023-04-03T13:25:31;2.03;;;1.47;;
7213;SDS011;3648;50.614;13.830;2023-04-03T13:27:59;2.60;;;1.60;;
7213;SDS011;3648;50.614;13.830;2023-04-03T13:30:29;2.63;;;1.73;;
7213;SDS011;3648;50.614;13.830;2023-04-03T13:32:58;2.93;;;1.73;;
7213;SDS011;3648;50.614;13.830;2023-04-03T13:35:29;4.40;;;2.20;;
7213;SDS011;3648;50.614;13.830;2023-04-03T13:37:59;4.13;;;2.17;;
7213;SDS011;3648;50.614;13.830;2023-04-03T13:40:27;4.10;;;2.00;;
7213;SDS011;3648;50.614;13.830;2023-04-03T13:42:59;2.13;;;1.80;;
7213;SDS011;3648;50.614;13.830;2023-04-03T13:45:29;2.93;;;1.33;;
7213;SDS011;3648;50.614;13.830;2023-04-03T13:48:07;2.47;;;1.30;;
7213;SDS011;3648;50.614;13.830;2023-04-03T13:50:50;2.20;;;1.40;;
7213;SDS011;3648;50.614;13.830;2023-04-03T13:53:20;2.00;;;1.27;;
7213;SDS011;3648;50.614;13.830;2023-04-03T13:55:56;2.90;;;1.37;;
7213;SDS011;3648;50.614;13.830;2023-04-03T13:58:27;3.13;;;1.10;;
7213;SDS011;3648;50.614;13.830;2023-04-03T14:00:56;1.97;;;1.07;;
7213;SDS011;3648;50.614;13.830;2023-04-03T14:03:28;2.13;;;1.20;;
7213;SDS011;3648;50.614;13.830;2023-04-03T14:05:56;2.33;;;1.10;;
7213;SDS011;3648;50.614;13.830;2023-04-03T14:08:24;2.33;;;1.07;;
7213;SDS011;3648;50.614;13.830;2023-04-03T14:10:52;2.87;;;1.10;;
7213;SDS011;3648;50.614;13.830;2023-04-03T14:13:20;2.13;;;1.07;;
7213;SDS011;3648;50.614;13.830;2023-04-03T14:15:48;2.20;;;1.10;;
7213;SDS011;3648;50.614;13.830;2023-04-03T14:18:17;1.47;;;1.00;;
7213;SDS011;3648;50.614;13.830;2023-04-03T14:20:45;3.00;;;1.30;;
7213;SDS011;3648;50.614;13.830;2023-04-03T14:23:13;2.80;;;1.10;;
7213;SDS011;3648;50.614;13.830;2023-04-03T14:25:41;2.20;;;1.40;;
7213;SDS011;3648;50.614;13.830;2023-04-03T14:28:14;2.10;;;1.20;;
7213;SDS011;3648;50.614;13.830;2023-04-03T14:30:43;2.80;;;1.43;;
7213;SDS011;3648;50.614;13.830;2023-04-03T14:33:14;1.87;;;1.17;;
7213;SDS011;3648;50.614;13.830;2023-04-03T14:35:44;2.70;;;1.40;;
7213;SDS011;3648;50.614;13.830;2023-04-03T14:38:20;1.93;;;1.20;;
7213;SDS011;3648;50.614;13.830;2023-04-03T14:40:49;2.40;;;1.30;;
7213;SDS011;3648;50.614;13.830;2023-04-03T14:43:17;2.63;;;1.10;;
7213;SDS011;3648;50.614;13.830;2023-04-03T14:45:45;2.23;;;1.10;;
7213;SDS011;3648;50.614;13.830;2023-04-03T14:48:16;1.83;;;1.20;;
7213;SDS011;3648;50.614;13.830;2023-04-03T14:50:46;2.83;;;1.40;;
7213;SDS011;3648;50.614;13.830;2023-04-03T14:53:14;2.43;;;1.60;;
7213;SDS011;3648;50.614;13.830;2023-04-03T14:55:42;1.67;;;1.27;;
7213;SDS011;3648;50.614;13.830;2023-04-03T14:58:11;1.97;;;1.40;;
7213;SDS011;3648;50.614;13.830;2023-04-03T15:00:40;2.47;;;1.37;;
7213;SDS011;3648;50.614;13.830;2023-04-03T15:03:12;3.50;;;1.43;;
7213;SDS011;3648;50.614;13.830;2023-04-03T15:05:41;2.97;;;1.30;;
7213;SDS011;3648;50.614;13.830;2023-04-03T15:08:13;3.63;;;1.60;;
7213;SDS011;3648;50.614;13.830;2023-04-03T15:10:45;2.63;;;1.30;;
7213;SDS011;3648;50.614;13.830;2023-04-03T15:13:13;2.80;;;1.60;;
7213;SDS011;3648;50.614;13.830;2023-04-03T15:15:41;2.07;;;1.23;;
7213;SDS011;3648;50.614;13.830;2023-04-03T15:18:10;2.87;;;1.40;;
7213;SDS011;3648;50.614;13.830;2023-04-03T15:20:42;2.40;;;1.10;;
7213;SDS011;3648;50.614;13.830;2023-04-03T15:23:11;3.00;;;1.20;;
7213;SDS011;3648;50.614;13.830;2023-04-03T15:25:40;1.93;;;1.57;;
7213;SDS011;3648;50.614;13.830;2023-04-03T15:28:09;2.87;;;1.27;;
7213;SDS011;3648;50.614;13.830;2023-04-03T15:30:44;2.03;;;1.17;;
7213;SDS011;3648;50.614;13.830;2023-04-03T15:33:12;1.43;;;1.13;;
7213;SDS011;3648;50.614;13.830;2023-04-03T15:35:40;3.07;;;1.57;;
7213;SDS011;3648;50.614;13.830;2023-04-03T15:38:09;2.13;;;1.30;;
7213;SDS011;3648;50.614;13.830;2023-04-03T15:40:36;2.20;;;1.00;;
7213;SDS011;3648;50.614;13.830;2023-04-03T15:43:04;2.37;;;1.50;;
7213;SDS011;3648;50.614;13.830;2023-04-03T15:45:33;2.27;;;1.40;;
7213;SDS011;3648;50.614;13.830;2023-04-03T15:48:01;2.07;;;1.10;;
7213;SDS011;3648;50.614;13.830;2023-04-03T15:50:29;2.93;;;1.40;;